Time;durP1;ratioP1;P1;durP2;ratioP2;P2;SDS_P1;SDS_P2;PMS_P1;PMS_P2;Temp;Humidity;BMP_temperature;BMP_pressure;BME280_temperature;BME280_humidity;BME280_pressure;Samples;Min_cycle;Max_cycle;Signal;HPM_P1;HPM_P2
2023/12/17 00:00:48;;;;;;;33.33;15.85;;;;;;;10.73;100.00;103881.69;5207479;28;20027;-74
2023/12/17 00:03:18;;;;;;;31.08;17.10;;;;;;;10.67;100.00;103871.31;5209733;28;20027;-74
2023/12/17 00:05:49;;;;;;;33.25;15.73;;;;;;;10.74;100.00;103881.56;5211282;28;20598;-74
2023/12/17 00:08:20;;;;;;;27.25;15.32;;;;;;;10.84;100.00;103873.81;5206945;28;20017;-74
2023/12/17 00:10:51;;;;;;;28.98;15.93;;;;;;;10.76;100.00;103866.25;5210500;28;20377;-74
2023/12/17 00:13:22;;;;;;;25.95;15.55;;;;;;;10.77;100.00;103867.97;5205835;28;20205;-74
2023/12/17 00:15:52;;;;;;;31.77;16.67;;;;;;;10.79;100.00;103878.59;5206527;28;20026;-74
2023/12/17 00:18:23;;;;;;;30.88;15.85;;;;;;;10.73;100.00;103865.56;5209125;28;20009;-74
2023/12/17 00:20:53;;;;;;;30.05;15.27;;;;;;;10.78;100.00;103860.78;5207661;28;20070;-73
2023/12/17 00:23:24;;;;;;;34.33;16.60;;;;;;;10.78;100.00;103856.25;5207812;28;20491;-74
2023/12/17 00:25:54;;;;;;;33.33;15.23;;;;;;;10.78;100.00;103858.94;5210273;28;20561;-74
2023/12/17 00:28:25;;;;;;;32.15;15.93;;;;;;;10.69;100.00;103858.66;5206753;28;20025;-74
2023/12/17 00:30:55;;;;;;;29.45;16.02;;;;;;;10.71;100.00;103859.44;5211602;28;20483;-74
2023/12/17 00:33:26;;;;;;;32.80;16.20;;;;;;;10.68;100.00;103854.25;5205550;28;20025;-74
2023/12/17 00:35:56;;;;;;;29.75;15.00;;;;;;;10.74;100.00;103848.50;5198919;28;20459;-73
2023/12/17 00:38:27;;;;;;;30.55;16.13;;;;;;;10.76;100.00;103846.59;5207967;28;20017;-76
2023/12/17 00:40:57;;;;;;;28.55;15.73;;;;;;;10.74;100.00;103835.91;5207190;28;20531;-74
2023/12/17 00:43:28;;;;;;;32.42;16.20;;;;;;;10.79;100.00;103844.59;5208229;28;20021;-74
2023/12/17 00:45:59;;;;;;;32.95;15.40;;;;;;;10.71;100.00;103833.44;5207541;28;20095;-72
2023/12/17 00:48:29;;;;;;;29.67;15.27;;;;;;;10.70;100.00;103830.88;5208154;28;20033;-73
2023/12/17 00:51:00;;;;;;;31.80;17.00;;;;;;;10.73;100.00;103836.88;5209431;28;20017;-74
2023/12/17 00:53:30;;;;;;;31.95;16.48;;;;;;;10.68;100.00;103846.19;5207814;28;20017;-74
2023/12/17 00:56:01;;;;;;;29.90;14.90;;;;;;;10.76;100.00;103841.22;5200264;28;20033;-74
2023/12/17 00:58:31;;;;;;;27.88;14.70;;;;;;;10.75;100.00;103839.50;5197650;28;20496;-74
2023/12/17 01:01:02;;;;;;;32.53;16.83;;;;;;;10.76;100.00;103847.44;5203272;28;20025;-74
2023/12/17 01:03:32;;;;;;;27.00;15.10;;;;;;;10.81;100.00;103841.81;5206197;28;20040;-74
2023/12/17 01:06:03;;;;;;;32.03;16.67;;;;;;;10.79;100.00;103849.97;5200307;28;20025;-74
2023/12/17 01:08:33;;;;;;;31.63;16.67;;;;;;;10.71;100.00;103837.97;5201695;28;20111;-74
2023/12/17 01:11:04;;;;;;;31.23;16.05;;;;;;;10.68;100.00;103836.31;5199888;28;20014;-74
2023/12/17 01:13:34;;;;;;;34.97;17.23;;;;;;;10.73;100.00;103844.09;5204434;28;20021;-74
2023/12/17 01:16:05;;;;;;;30.58;16.95;;;;;;;10.76;100.00;103854.66;5206748;28;20420;-74
2023/12/17 01:18:36;;;;;;;37.28;18.13;;;;;;;10.76;100.00;103843.91;5208475;28;20021;-74
2023/12/17 01:21:06;;;;;;;37.85;16.85;;;;;;;10.70;100.00;103842.47;5208195;28;20059;-75
2023/12/17 01:23:37;;;;;;;37.53;17.23;;;;;;;10.67;100.00;103839.97;5204763;28;20025;-75
2023/12/17 01:26:08;;;;;;;37.45;18.02;;;;;;;10.70;100.00;103833.56;5204726;28;20041;-74
2023/12/17 01:28:38;;;;;;;33.75;17.10;;;;;;;10.72;100.00;103824.44;5209953;28;20033;-75
2023/12/17 01:31:09;;;;;;;34.95;15.63;;;;;;;10.75;100.00;103834.13;5206828;28;20025;-74
2023/12/17 01:33:39;;;;;;;34.97;17.20;;;;;;;10.76;100.00;103833.16;5211795;28;20119;-74
2023/12/17 01:36:10;;;;;;;38.20;18.15;;;;;;;10.75;100.00;103831.44;5209298;28;20033;-74
2023/12/17 01:38:41;;;;;;;33.20;17.08;;;;;;;10.71;100.00;103841.50;5212900;28;20935;-74
2023/12/17 01:41:11;;;;;;;34.13;16.70;;;;;;;10.72;100.00;103837.84;5211525;28;20266;-74
2023/12/17 01:43:42;;;;;;;38.03;18.50;;;;;;;10.68;100.00;103828.25;5211729;28;20032;-74
2023/12/17 01:46:13;;;;;;;38.78;18.52;;;;;;;10.66;100.00;103826.63;5204319;28;20024;-74
2023/12/17 01:48:45;;;;;;;35.33;18.08;;;;;;;10.59;100.00;103827.03;5207574;28;20112;-74
2023/12/17 01:51:16;;;;;;;35.30;18.05;;;;;;;10.60;100.00;103827.88;5208009;28;20434;-74
2023/12/17 01:53:47;;;;;;;30.65;16.35;;;;;;;10.58;100.00;103811.84;5213099;28;20083;-74
2023/12/17 01:56:17;;;;;;;30.48;15.95;;;;;;;10.65;100.00;103819.53;5204696;28;20440;-73
2023/12/17 01:58:48;;;;;;;32.65;15.27;;;;;;;10.67;100.00;103814.94;5203754;28;20476;-73
2023/12/17 02:01:18;;;;;;;31.42;16.10;;;;;;;10.60;100.00;103818.00;5208387;28;20037;-74
2023/12/17 02:03:49;;;;;;;35.75;16.67;;;;;;;10.60;100.00;103820.69;5211781;28;20488;-74
2023/12/17 02:06:20;;;;;;;34.33;16.55;;;;;;;10.60;100.00;103818.00;5208183;28;20025;-74
2023/12/17 02:08:51;;;;;;;38.85;16.42;;;;;;;10.59;100.00;103816.28;5205066;28;20024;-74
2023/12/17 02:11:41;;;;;;;36.45;16.88;;;;;;;10.60;100.00;103812.63;5206440;28;20112;-74
2023/12/17 02:14:21;;;;;;;31.80;17.05;;;;;;;10.53;100.00;103813.94;5205844;28;20017;-74
2023/12/17 02:16:51;;;;;;;38.83;18.13;;;;;;;10.42;100.00;103813.75;5207763;28;20511;-74
2023/12/17 02:19:27;;;;;;;38.40;17.95;;;;;;;10.43;100.00;103812.78;5201827;28;20052;-74
2023/12/17 02:22:05;;;;;;;39.53;17.55;;;;;;;10.50;100.00;103815.97;5203845;28;20029;-74
2023/12/17 02:24:46;;;;;;;37.78;16.77;;;;;;;10.42;100.00;103816.44;5206942;28;20033;-74
2023/12/17 02:27:22;;;;;;;40.20;17.58;;;;;;;10.39;100.00;103830.03;5208702;28;20084;-74
2023/12/17 02:29:54;;;;;;;36.78;17.17;;;;;;;10.44;100.00;103837.78;5211820;28;20078;-73
2023/12/17 02:32:25;;;;;;;42.33;17.17;;;;;;;10.37;100.00;103832.81;5203992;28;20481;-73
2023/12/17 02:34:59;;;;;;;39.67;18.20;;;;;;;10.30;100.00;103833.28;5207435;28;20170;-73
2023/12/17 02:37:30;;;;;;;37.15;17.15;;;;;;;10.38;100.00;103830.97;5205509;28;20371;-73
2023/12/17 02:40:00;;;;;;;35.15;16.83;;;;;;;10.26;100.00;103826.38;5207099;28;20048;-73
2023/12/17 02:42:30;;;;;;;34.85;16.05;;;;;;;10.35;100.00;103826.69;5209219;28;20025;-72
2023/12/17 02:45:01;;;;;;;35.25;16.23;;;;;;;10.35;100.00;103824.00;5206949;28;20477;-74
2023/12/17 02:47:32;;;;;;;41.17;16.10;;;;;;;10.36;100.00;103819.50;5208109;28;20083;-74
2023/12/17 02:50:03;;;;;;;35.28;15.93;;;;;;;10.30;100.00;103819.88;5221643;28;20224;-74
2023/12/17 02:52:33;;;;;;;37.00;17.05;;;;;;;10.38;100.00;103813.06;5205798;28;20139;-74
2023/12/17 02:55:04;;;;;;;34.67;15.63;;;;;;;10.41;100.00;103813.84;5205469;28;20431;-74
2023/12/17 02:57:35;;;;;;;36.40;16.02;;;;;;;10.36;100.00;103817.66;5207610;28;20032;-74
2023/12/17 03:00:14;;;;;;;35.63;15.93;;;;;;;10.45;100.00;103818.94;5209726;28;20027;-74
2023/12/17 03:02:45;;;;;;;38.13;16.88;;;;;;;10.42;100.00;103813.75;5212016;28;20477;-74
2023/12/17 03:05:15;;;;;;;37.15;15.45;;;;;;;10.38;100.00;103810.38;5208096;28;20024;-74
2023/12/17 03:07:46;;;;;;;39.97;16.48;;;;;;;10.42;100.00;103808.38;5208142;28;20029;-74
2023/12/17 03:10:16;;;;;;;32.75;15.85;;;;;;;10.33;100.00;103808.94;5204278;28;20049;-74
2023/12/17 03:12:47;;;;;;;35.58;15.82;;;;;;;10.36;100.00;103804.25;5208271;28;20029;-74
2023/12/17 03:15:18;;;;;;;39.50;16.98;;;;;;;10.32;100.00;103807.22;5204827;28;20013;-73
2023/12/17 03:17:49;;;;;;;37.60;16.55;;;;;;;10.22;100.00;103806.00;5208199;28;20028;-73
2023/12/17 03:20:19;;;;;;;41.40;16.63;;;;;;;10.27;100.00;103806.63;5208712;28;20033;-73
2023/12/17 03:22:50;;;;;;;42.50;18.35;;;;;;;10.19;100.00;103811.53;5207923;28;20031;-74
2023/12/17 03:25:21;;;;;;;33.63;15.73;;;;;;;10.17;100.00;103810.78;5206970;28;20104;-73
2023/12/17 03:27:51;;;;;;;43.58;18.40;;;;;;;10.24;100.00;103814.84;5209938;28;20040;-73
2023/12/17 03:30:22;;;;;;;46.55;16.92;;;;;;;10.26;100.00;103815.63;5204310;28;20398;-73
2023/12/17 03:32:52;;;;;;;39.53;16.77;;;;;;;10.18;100.00;103807.13;5201098;28;20024;-73
2023/12/17 03:35:23;;;;;;;37.33;17.42;;;;;;;10.19;100.00;103806.16;5206506;28;20018;-73
2023/12/17 03:37:53;;;;;;;43.47;17.98;;;;;;;10.16;100.00;103801.00;5208663;28;20419;-72
2023/12/17 03:40:24;;;;;;;40.72;17.25;;;;;;;10.08;100.00;103801.44;5205457;28;20028;-72
2023/12/17 03:42:54;;;;;;;50.28;18.75;;;;;;;10.04;100.00;103799.91;5209544;28;20459;-72
2023/12/17 03:45:25;;;;;;;48.53;18.17;;;;;;;10.11;100.00;103798.59;5203329;28;20022;-72
2023/12/17 03:47:55;;;;;;;43.65;18.63;;;;;;;10.12;100.00;103797.63;5211489;28;20052;-72
2023/12/17 03:50:26;;;;;;;44.00;18.77;;;;;;;9.96;100.00;103795.00;5205291;28;20021;-72
2023/12/17 03:52:56;;;;;;;43.88;17.85;;;;;;;10.01;100.00;103792.91;5210016;28;20017;-73
2023/12/17 03:55:27;;;;;;;47.67;18.38;;;;;;;10.02;100.00;103789.28;5202598;28;20025;-73
2023/12/17 03:57:57;;;;;;;53.20;20.05;;;;;;;10.02;100.00;103783.03;5206097;28;20017;-73
2023/12/17 04:00:28;;;;;;;43.47;18.25;;;;;;;10.00;100.00;103780.47;5206315;28;20576;-73
2023/12/17 04:02:58;;;;;;;45.72;18.50;;;;;;;10.04;100.00;103776.66;5206355;28;20044;-75
2023/12/17 04:05:29;;;;;;;54.47;19.73;;;;;;;10.02;100.00;103772.31;5208530;28;20071;-75
2023/12/17 04:07:59;;;;;;;45.17;17.55;;;;;;;9.90;100.00;103770.38;5207144;28;20024;-74
2023/12/17 04:10:30;;;;;;;48.40;17.80;;;;;;;9.89;100.00;103772.19;5207644;28;20017;-74
2023/12/17 04:13:01;;;;;;;53.50;17.92;;;;;;;9.88;100.00;103772.25;5206664;28;20045;-73
2023/12/17 04:15:31;;;;;;;51.88;20.73;;;;;;;9.83;100.00;103776.06;5204517;28;20029;-74
2023/12/17 04:18:02;;;;;;;47.08;18.25;;;;;;;9.93;100.00;103768.34;5206578;28;20100;-74
2023/12/17 04:20:33;;;;;;;48.22;18.58;;;;;;;9.94;100.00;103775.47;5206105;28;20017;-73
2023/12/17 04:23:04;;;;;;;48.72;16.98;;;;;;;9.86;100.00;103764.31;5203239;28;20535;-73
2023/12/17 04:25:34;;;;;;;48.05;16.80;;;;;;;9.94;100.00;103766.53;5209122;28;20481;-73
2023/12/17 04:28:05;;;;;;;47.17;17.95;;;;;;;9.94;100.00;103759.38;5208677;28;20029;-73
2023/12/17 04:30:35;;;;;;;41.78;15.55;;;;;;;9.88;100.00;103765.09;5207082;28;20064;-73
2023/12/17 04:33:06;;;;;;;51.53;17.08;;;;;;;9.71;100.00;103762.53;5205134;28;20076;-73
2023/12/17 04:35:36;;;;;;;38.95;15.23;;;;;;;9.74;100.00;103767.72;5206719;28;20045;-73
2023/12/17 04:38:07;;;;;;;37.78;14.48;;;;;;;9.73;100.00;103771.34;5207041;28;20087;-73
2023/12/17 04:40:38;;;;;;;37.22;14.23;;;;;;;9.89;100.00;103776.66;5206959;28;20133;-74
2023/12/17 04:43:08;;;;;;;42.35;15.30;;;;;;;9.80;100.00;103764.69;5206131;28;20511;-74
2023/12/17 04:45:39;;;;;;;36.83;14.32;;;;;;;9.90;100.00;103765.00;5204923;28;20469;-75
2023/12/17 04:48:09;;;;;;;36.20;14.90;;;;;;;9.69;100.00;103765.31;5203276;28;20026;-74
2023/12/17 04:50:40;;;;;;;36.90;14.07;;;;;;;9.78;100.00;103766.59;5205625;28;20146;-74
2023/12/17 04:53:10;;;;;;;35.05;14.13;;;;;;;9.70;100.00;103758.16;5204126;28;20522;-74
2023/12/17 04:55:41;;;;;;;34.47;13.60;;;;;;;9.75;100.00;103756.06;5204985;28;20469;-73
2023/12/17 04:58:12;;;;;;;34.65;13.63;;;;;;;9.78;100.00;103763.91;5205469;28;20113;-73
2023/12/17 05:00:42;;;;;;;38.03;13.07;;;;;;;9.72;100.00;103753.53;5204504;28;20108;-73
2023/12/17 05:03:13;;;;;;;36.88;12.90;;;;;;;9.74;100.00;103748.94;5205292;28;20369;-74
2023/12/17 05:05:44;;;;;;;31.13;12.93;;;;;;;9.64;100.00;103745.97;5204728;28;20259;-74
2023/12/17 05:08:14;;;;;;;31.80;12.18;;;;;;;9.58;100.00;103739.13;5204941;28;20038;-74
2023/12/17 05:10:45;;;;;;;30.80;12.10;;;;;;;9.58;100.00;103738.25;5203895;28;20500;-74
2023/12/17 05:13:16;;;;;;;32.50;12.43;;;;;;;9.63;100.00;103748.72;5205077;28;20080;-74
2023/12/17 05:15:47;;;;;;;30.83;12.25;;;;;;;9.53;100.00;103741.19;5205855;28;20493;-75
2023/12/17 05:18:17;;;;;;;33.38;12.13;;;;;;;9.52;100.00;103743.97;5209058;28;20036;-75
2023/12/17 05:20:48;;;;;;;28.77;12.23;;;;;;;9.64;100.00;103742.41;5207771;28;20025;-75
2023/12/17 05:23:19;;;;;;;31.15;12.23;;;;;;;9.57;100.00;103745.44;5204249;28;20029;-75
2023/12/17 05:25:49;;;;;;;29.67;12.35;;;;;;;9.60;100.00;103744.41;5208956;28;20020;-75
2023/12/17 05:28:19;;;;;;;27.88;12.07;;;;;;;9.57;100.00;103745.44;5221025;28;20017;-75
2023/12/17 05:30:50;;;;;;;28.50;12.50;;;;;;;9.50;100.00;103746.75;5207376;28;20039;-75
2023/12/17 05:33:20;;;;;;;26.63;11.48;;;;;;;9.52;100.00;103742.16;5207720;28;20484;-75
2023/12/17 05:35:51;;;;;;;23.48;10.02;;;;;;;9.52;100.00;103744.84;5204676;28;20029;-74
2023/12/17 05:38:22;;;;;;;25.20;11.50;;;;;;;9.62;100.00;103747.00;5206176;28;20376;-75
2023/12/17 05:40:52;;;;;;;30.25;10.73;;;;;;;9.60;100.00;103749.78;5203735;28;20033;-75
2023/12/17 05:43:24;;;;;;;22.33;10.13;;;;;;;9.45;100.00;103750.66;5208098;28;20010;-75
2023/12/17 05:45:54;;;;;;;28.00;10.00;;;;;;;9.39;100.00;103748.31;5210187;28;20025;-75
2023/12/17 05:48:26;;;;;;;20.40;8.88;;;;;;;9.47;100.00;103751.44;5204210;28;20404;-75
2023/12/17 05:50:56;;;;;;;21.10;9.88;;;;;;;9.32;100.00;103750.47;5208800;28;20021;-75
2023/12/17 05:53:27;;;;;;;23.45;10.23;;;;;;;9.36;100.00;103752.03;5210252;28;20467;-76
2023/12/17 05:55:59;;;;;;;22.67;9.25;;;;;;;9.32;100.00;103754.03;5201290;28;20106;-75
2023/12/17 05:58:31;;;;;;;22.83;9.93;;;;;;;9.38;100.00;103760.84;5206567;28;20031;-75
2023/12/17 06:01:02;;;;;;;20.50;9.48;;;;;;;9.40;100.00;103752.75;5207365;28;20032;-75
2023/12/17 06:03:33;;;;;;;20.55;9.10;;;;;;;9.47;100.00;103757.66;5208813;28;20032;-75
2023/12/17 06:06:03;;;;;;;37.15;17.95;;;;;;;9.51;100.00;103761.03;5210687;28;20021;-75
2023/12/17 06:08:34;;;;;;;23.63;10.45;;;;;;;9.48;100.00;103761.19;5210377;28;20026;-75
2023/12/17 06:11:05;;;;;;;18.83;10.13;;;;;;;9.33;100.00;103763.78;5208786;28;20545;-75
2023/12/17 06:13:35;;;;;;;25.35;11.27;;;;;;;9.41;100.00;103765.19;5206746;28;20310;-76
2023/12/17 06:16:06;;;;;;;22.55;10.88;;;;;;;9.18;100.00;103759.28;5208051;28;20032;-75
2023/12/17 06:18:37;;;;;;;26.10;11.32;;;;;;;9.18;100.00;103755.75;5209888;28;20070;-75
2023/12/17 06:21:07;;;;;;;26.75;11.02;;;;;;;9.10;100.00;103760.69;5209257;28;20035;-75
2023/12/17 06:23:38;;;;;;;25.80;11.63;;;;;;;9.14;100.00;103759.59;5210372;28;20129;-75
2023/12/17 06:26:08;;;;;;;24.98;10.77;;;;;;;9.17;100.00;103765.59;5210461;28;20452;-75
2023/12/17 06:28:39;;;;;;;24.02;10.63;;;;;;;9.21;100.00;103760.94;5209726;28;20029;-75
2023/12/17 06:31:09;;;;;;;22.83;10.75;;;;;;;9.20;100.00;103756.56;5208030;28;20018;-75
2023/12/17 06:33:40;;;;;;;25.92;10.55;;;;;;;9.21;100.00;103759.13;5209081;28;20029;-75
2023/12/17 06:36:10;;;;;;;25.38;10.35;;;;;;;9.24;100.00;103769.69;5207304;28;20472;-75
2023/12/17 06:38:41;;;;;;;23.92;10.35;;;;;;;9.03;100.00;103765.50;5208654;28;20014;-75
2023/12/17 06:41:11;;;;;;;26.08;9.93;;;;;;;8.98;100.00;103767.56;5204849;28;20030;-74
2023/12/17 06:43:42;;;;;;;30.73;12.55;;;;;;;8.92;100.00;103768.78;5210436;28;20021;-74
2023/12/17 06:46:16;;;;;;;29.00;12.52;;;;;;;8.87;100.00;103770.84;5206291;28;20017;-73
2023/12/17 06:48:50;;;;;;;39.42;14.00;;;;;;;8.87;100.00;103762.81;5208234;28;20126;-76
2023/12/17 06:51:20;;;;;;;39.08;13.15;;;;;;;8.91;100.00;103764.38;5206817;28;20032;-76
2023/12/17 06:53:50;;;;;;;32.40;13.48;;;;;;;8.87;100.00;103772.66;5209583;28;20323;-76
2023/12/17 06:56:21;;;;;;;36.10;13.85;;;;;;;8.82;100.00;103768.41;5206714;28;20602;-76
2023/12/17 06:58:53;;;;;;;44.17;16.35;;;;;;;8.78;100.00;103774.03;5210147;28;20029;-76
2023/12/17 07:01:23;;;;;;;42.42;15.80;;;;;;;8.82;100.00;103770.22;5222729;28;20029;-76
2023/12/17 07:03:54;;;;;;;46.10;16.20;;;;;;;8.69;100.00;103769.19;5208757;28;20025;-76
2023/12/17 07:06:24;;;;;;;39.58;14.80;;;;;;;8.61;100.00;103772.25;5208801;28;20053;-76
2023/12/17 07:08:55;;;;;;;47.15;17.30;;;;;;;8.81;100.00;103765.84;5207934;28;20045;-76
2023/12/17 07:11:26;;;;;;;49.03;16.30;;;;;;;8.74;100.00;103754.59;5190712;28;20021;-76
2023/12/17 07:13:57;;;;;;;48.17;15.35;;;;;;;8.70;100.00;103758.41;5209276;28;20029;-76
2023/12/17 07:16:28;;;;;;;43.03;15.63;;;;;;;8.56;100.00;103767.16;5204797;28;20052;-76
2023/12/17 07:18:59;;;;;;;45.67;16.85;;;;;;;8.66;100.00;103764.84;5209507;28;20056;-76
2023/12/17 07:21:30;;;;;;;54.83;18.63;;;;;;;8.68;100.00;103770.13;5204521;28;20025;-76
2023/12/17 07:24:00;;;;;;;50.60;18.08;;;;;;;8.62;100.00;103778.47;5209111;28;20372;-76
2023/12/17 07:26:31;;;;;;;62.50;20.20;;;;;;;8.74;100.00;103773.34;5205408;28;20424;-76
2023/12/17 07:29:01;;;;;;;57.22;19.52;;;;;;;8.81;100.00;103776.53;5208621;28;20025;-76
2023/12/17 07:31:32;;;;;;;58.97;19.38;;;;;;;8.86;100.00;103770.94;5207881;28;20044;-76
2023/12/17 07:34:02;;;;;;;54.15;18.95;;;;;;;8.71;100.00;103764.59;5206568;28;20021;-76
2023/12/17 07:36:33;;;;;;;58.95;21.30;;;;;;;8.75;100.00;103761.69;5206306;28;20112;-76
2023/12/17 07:39:04;;;;;;;54.38;20.25;;;;;;;8.65;100.00;103771.16;5208351;28;20021;-76
2023/12/17 07:41:35;;;;;;;53.65;20.70;;;;;;;8.69;100.00;103771.88;5207243;28;20458;-76
2023/12/17 07:44:05;;;;;;;52.30;19.45;;;;;;;8.59;100.00;103771.50;5208353;28;20021;-76
2023/12/17 07:46:36;;;;;;;53.88;20.70;;;;;;;8.67;100.00;103757.69;5206416;28;20531;-76
2023/12/17 07:49:07;;;;;;;64.82;21.90;;;;;;;8.68;100.00;103770.13;5205670;28;20021;-76
2023/12/17 07:51:38;;;;;;;52.58;20.15;;;;;;;8.76;100.00;103759.88;5207467;28;20400;-76
2023/12/17 07:54:08;;;;;;;60.70;20.75;;;;;;;8.75;100.00;103753.66;5206915;28;20103;-76
2023/12/17 07:56:39;;;;;;;59.95;22.05;;;;;;;8.62;100.00;103759.75;5209221;28;20029;-76
2023/12/17 07:59:09;;;;;;;59.47;21.63;;;;;;;8.63;100.00;103758.78;5202780;28;20021;-76
2023/12/17 08:01:40;;;;;;;59.80;21.35;;;;;;;8.68;100.00;103759.41;5208489;28;20028;-76
2023/12/17 08:04:11;;;;;;;62.30;22.10;;;;;;;8.58;100.00;103756.34;5207488;28;20021;-76
2023/12/17 08:06:42;;;;;;;70.03;22.88;;;;;;;8.71;100.00;103759.25;5204815;28;20067;-76
2023/12/17 08:09:12;;;;;;;65.22;22.83;;;;;;;8.58;100.00;103756.34;5207068;28;20496;-76
2023/12/17 08:11:44;;;;;;;62.17;22.92;;;;;;;8.55;100.00;103764.56;5207689;28;20017;-76
2023/12/17 08:14:14;;;;;;;65.15;22.83;;;;;;;8.70;100.00;103765.56;5207497;28;20476;-76
2023/12/17 08:16:45;;;;;;;70.45;23.83;;;;;;;8.74;100.00;103759.09;5208643;28;20041;-76
2023/12/17 08:19:16;;;;;;;61.55;22.13;;;;;;;8.76;100.00;103765.22;5207451;28;20427;-76
2023/12/17 08:21:46;;;;;;;66.15;24.20;;;;;;;8.87;100.00;103765.50;5207778;28;20033;-76
2023/12/17 08:24:17;;;;;;;72.40;23.23;;;;;;;8.82;100.00;103765.75;5208300;28;20017;-76
2023/12/17 08:26:47;;;;;;;67.07;21.98;;;;;;;8.88;100.00;103758.31;5203205;28;20556;-76
2023/12/17 08:29:18;;;;;;;76.85;23.27;;;;;;;8.87;100.00;103765.50;5206697;28;20021;-76
2023/12/17 08:31:48;;;;;;;59.22;22.88;;;;;;;8.81;100.00;103758.66;5206803;28;20021;-73
2023/12/17 08:34:19;;;;;;;65.05;21.23;;;;;;;8.72;100.00;103761.84;5205670;28;20103;-73
2023/12/17 08:36:49;;;;;;;61.80;21.23;;;;;;;8.72;100.00;103769.88;5210789;28;20052;-73
2023/12/17 08:39:23;;;;;;;67.45;21.83;;;;;;;8.70;100.00;103784.28;5206045;28;20040;-73
2023/12/17 08:41:53;;;;;;;58.42;19.70;;;;;;;8.61;100.00;103785.66;5204460;28;20025;-73
2023/12/17 08:44:25;;;;;;;67.70;21.70;;;;;;;8.57;100.00;103776.03;5205009;28;20388;-76
2023/12/17 08:46:56;;;;;;;69.85;21.00;;;;;;;8.67;100.00;103781.78;5207067;28;20028;-76
2023/12/17 08:49:26;;;;;;;68.85;21.35;;;;;;;8.67;100.00;103785.31;5207702;28;20369;-76
2023/12/17 08:51:57;;;;;;;69.55;21.67;;;;;;;8.81;100.00;103773.88;5205979;28;20078;-75
2023/12/17 08:54:27;;;;;;;78.38;21.25;;;;;;;8.76;100.00;103773.25;5203564;28;20014;-76
2023/12/17 08:56:58;;;;;;;74.93;22.00;;;;;;;8.80;100.00;103780.19;5209057;28;20426;-75
2023/12/17 08:59:28;;;;;;;68.35;21.98;;;;;;;8.85;100.00;103782.59;5208046;28;20390;-75
2023/12/17 09:01:59;;;;;;;64.68;21.73;;;;;;;8.97;100.00;103774.75;5208864;28;20104;-75
2023/12/17 09:04:30;;;;;;;64.30;21.85;;;;;;;9.06;100.00;103776.06;5205611;28;20164;-75
2023/12/17 09:07:00;;;;;;;54.65;19.00;;;;;;;9.27;100.00;103777.53;5207163;28;20025;-75
2023/12/17 09:09:31;;;;;;;54.10;19.10;;;;;;;9.42;100.00;103773.13;5208164;28;20087;-75
2023/12/17 09:12:01;;;;;;;51.53;18.48;;;;;;;9.44;100.00;103771.25;5209515;28;20506;-75
2023/12/17 09:14:32;;;;;;;52.83;19.13;;;;;;;9.32;100.00;103772.78;5208310;28;20028;-75
2023/12/17 09:17:03;;;;;;;43.80;17.80;;;;;;;9.49;100.00;103769.16;5207971;28;20021;-75
2023/12/17 09:19:34;;;;;;;42.10;16.02;;;;;;;9.47;100.00;103764.81;5208243;28;20076;-75
2023/12/17 09:22:04;;;;;;;43.45;16.42;;;;;;;9.49;100.00;103769.16;5207760;28;20057;-75
2023/12/17 09:24:35;;;;;;;34.22;14.00;;;;;;;9.38;100.00;103771.56;5208146;28;20022;-75
2023/12/17 09:27:06;;;;;;;37.95;15.18;;;;;;;9.54;100.00;103768.91;5208894;28;20032;-75
2023/12/17 09:29:36;;;;;;;43.05;14.38;;;;;;;9.33;100.00;103768.28;5207153;28;20068;-75
2023/12/17 09:32:08;;;;;;;43.72;15.43;;;;;;;9.44;100.00;103760.53;5212548;28;20021;-75
2023/12/17 09:34:39;;;;;;;48.45;15.20;;;;;;;9.47;100.00;103765.69;5209332;28;20047;-75
2023/12/17 09:37:09;;;;;;;38.33;16.13;;;;;;;9.54;100.00;103776.94;5210914;28;20079;-75
2023/12/17 09:39:40;;;;;;;41.92;16.48;;;;;;;9.45;100.00;103782.81;5211016;28;20017;-75
2023/12/17 09:42:11;;;;;;;39.45;15.85;;;;;;;9.60;100.00;103771.22;5224758;28;20021;-75
2023/12/17 09:44:42;;;;;;;41.40;15.48;;;;;;;9.63;100.00;103775.53;5208256;28;20072;-75
2023/12/17 09:47:13;;;;;;;41.83;16.55;;;;;;;9.63;100.00;103776.38;5208042;28;20024;-75
2023/12/17 09:49:43;;;;;;;45.28;14.98;;;;;;;9.89;100.00;103777.56;5216815;28;20034;-75
2023/12/17 09:52:18;;;;;;;40.03;15.90;;;;;;;10.00;100.00;103774.25;5212476;28;20036;-75
2023/12/17 09:54:49;;;;;;;43.65;16.50;;;;;;;9.98;100.00;103774.31;5212789;28;20021;-75
2023/12/17 09:57:19;;;;;;;48.20;14.85;;;;;;;10.05;100.00;103775.69;5213516;28;20116;-75
2023/12/17 09:59:50;;;;;;;53.25;13.50;;;;;;;10.05;100.00;103782.88;5217964;28;20079;-75
2023/12/17 10:02:20;;;;;;;36.05;13.90;;;;;;;9.98;100.00;103779.66;5214670;28;20020;-75
2023/12/17 10:04:51;;;;;;;36.17;12.50;;;;;;;10.07;100.00;103775.59;5218038;28;20029;-75
2023/12/17 10:07:21;;;;;;;40.20;13.10;;;;;;;10.19;100.00;103779.34;5212400;28;20078;-75
2023/12/17 10:09:52;;;;;;;35.47;12.27;;;;;;;10.17;100.00;103771.41;5217160;28;20075;-75
2023/12/17 10:12:23;;;;;;;30.13;12.52;;;;;;;10.42;100.00;103775.31;5223420;28;20047;-75
2023/12/17 10:14:54;;;;;;;37.55;11.88;;;;;;;10.74;100.00;103782.22;5212428;28;20434;-76
2023/12/17 10:17:26;;;;;;;32.22;10.73;;;;;;;10.49;100.00;103776.66;5212182;28;20043;-75
2023/12/17 10:19:56;;;;;;;27.27;10.02;;;;;;;10.59;100.00;103776.00;5214994;28;20018;-75
2023/12/17 10:22:26;;;;;;;25.67;10.20;;;;;;;10.68;100.00;103782.59;5221580;28;20051;-75
2023/12/17 10:24:57;;;;;;;38.70;10.57;;;;;;;10.62;100.00;103778.50;5215847;28;20373;-75
2023/12/17 10:27:30;;;;;;;28.15;9.38;;;;;;;10.72;100.00;103772.56;5210973;28;20013;-75
2023/12/17 10:30:02;;;;;;;28.08;9.75;;;;;;;10.63;100.00;103771.28;5214729;28;20078;-76
2023/12/17 10:32:34;;;;;;;32.83;9.73;;;;;;;10.75;100.00;103769.69;5208968;28;20021;-75
2023/12/17 10:35:06;;;;;;;34.67;9.15;;;;;;;10.75;100.00;103767.00;5210300;28;20048;-75
2023/12/17 10:37:37;;;;;;;32.53;9.63;;;;;;;10.99;100.00;103769.94;5212283;28;20025;-75
2023/12/17 10:40:11;;;;;;;33.97;9.25;;;;;;;10.90;100.00;103763.34;5215911;28;20484;-75
2023/12/17 10:42:43;;;;;;;25.13;8.00;;;;;;;10.84;100.00;103763.72;5216977;28;20025;-75
2023/12/17 10:45:18;;;;;;;33.83;10.02;;;;;;;10.91;100.00;103754.31;5210808;28;20147;-75
2023/12/17 10:47:52;;;;;;;32.97;9.80;;;;;;;10.96;100.00;103759.41;5206803;28;20025;-76
2023/12/17 10:50:24;;;;;;;31.53;8.47;;;;;;;11.04;100.00;103752.56;5215906;28;20025;-76
2023/12/17 10:52:55;;;;;;;29.52;8.25;;;;;;;11.11;100.00;103748.53;5207260;28;20333;-76
2023/12/17 10:55:25;;;;;;;29.88;8.50;;;;;;;11.15;100.00;103751.88;5216280;28;20012;-76
2023/12/17 10:58:03;;;;;;;30.98;9.35;;;;;;;11.19;100.00;103739.09;5208380;28;20026;-76
2023/12/17 11:00:35;;;;;;;27.27;7.22;;;;;;;11.10;100.00;103733.38;5208904;28;20024;-75
2023/12/17 11:03:07;;;;;;;27.50;7.10;;;;;;;11.20;100.00;103717.50;5210755;28;20027;-76
2023/12/17 11:05:37;;;;;;;27.63;7.30;;;;;;;11.15;100.00;103717.81;5215376;28;20021;-75
2023/12/17 11:08:08;;;;;;;22.30;6.55;;;;;;;11.10;100.00;103711.88;5209057;28;20021;-75
2023/12/17 11:10:39;;;;;;;25.20;6.18;;;;;;;11.09;100.00;103715.53;5213314;28;20048;-76
2023/12/17 11:13:10;;;;;;;27.17;7.97;;;;;;;11.12;100.00;103709.94;5206216;28;20025;-76
2023/12/17 11:15:40;;;;;;;21.45;6.57;;;;;;;11.15;100.00;103712.44;5211535;28;20036;-76
2023/12/17 11:18:10;;;;;;;25.63;5.88;;;;;;;10.93;100.00;103701.34;5215353;28;20075;-75
2023/12/17 11:20:44;;;;;;;21.45;6.25;;;;;;;11.05;100.00;103699.72;5211081;28;20025;-76
2023/12/17 11:23:16;;;;;;;25.67;6.82;;;;;;;11.01;100.00;103692.81;5213371;28;20519;-76